Main page
METAR-TAF:

METAR-TAF

Airports :

Pamplona Airport

Pamplona, Spain

latitude: 42-46N, longitude: 001-38W, elevation: 459 m

Current weather observation

The report was made 45 minutes ago, at 20:00 UTC
Wind 11 kt from the North/Northwest
Temperature 0°C
Humidity 74%
Pressure 1030 hPa
Visibility 10 km or more
Few clouds at a height of 3000 ft

METAR: LEPP 212000Z 33011KT 9999 FEW030 00/M04 Q1030

Time: 21:45 (20:45 UTC)

Forecast

The report was made 45 minutes ago, at 20:00 UTC
Forecast valid from 21 at 21 UTC to 22 at 21 UTC
Wind 9 kt from the North/Northwest
Visibility 10 km or more
Few clouds at a height of 3500 ft
Probability 30% :
Temporary
from 22 at 11 UTC to 22 at 21 UTC
Wind 20 kt from the North

TAF: LEPP 212000Z 2121/2221 34009KT 9999 FEW035 TX06/2215Z TNM03/2205Z PROB30 TEMPO 2211/2221 35020KT

Weather observations and forecasts of more than 4000 airports (METAR and TAF reports).

The available stations are represented by yellow and red dots on the map.

Hover mouse over dot to see the name of the station.

Then click to see weather observations and forecasts.

To change the map : click on the green buttons with a black cross to zoom in, on the green button with a dash to zoom out, or on the green arrows for adjacent maps.


METAR-TAF: